sensor_id;sensor_type;location;lat;lon;timestamp;P1;durP1;ratioP1;P2;durP2;ratioP2
27505;SDS011;14939;43.596;1.320;2022-11-04T00:01:48;13.13;;;2.10;;
27505;SDS011;14939;43.596;1.320;2022-11-04T00:04:15;19.15;;;3.03;;
27505;SDS011;14939;43.596;1.320;2022-11-04T00:06:42;15.07;;;2.40;;
27505;SDS011;14939;43.596;1.320;2022-11-04T00:09:09;14.25;;;3.05;;
27505;SDS011;14939;43.596;1.320;2022-11-04T00:11:40;18.40;;;2.20;;
27505;SDS011;14939;43.596;1.320;2022-11-04T00:14:26;16.25;;;2.38;;
27505;SDS011;14939;43.596;1.320;2022-11-04T00:16:53;16.65;;;2.05;;
27505;SDS011;14939;43.596;1.320;2022-11-04T00:19:37;19.45;;;2.88;;
27505;SDS011;14939;43.596;1.320;2022-11-04T00:22:21;18.35;;;2.60;;
27505;SDS011;14939;43.596;1.320;2022-11-04T00:25:05;19.33;;;2.85;;
27505;SDS011;14939;43.596;1.320;2022-11-04T00:27:51;20.00;;;2.67;;
27505;SDS011;14939;43.596;1.320;2022-11-04T00:30:35;13.35;;;2.35;;
27505;SDS011;14939;43.596;1.320;2022-11-04T00:33:01;17.42;;;2.40;;
27505;SDS011;14939;43.596;1.320;2022-11-04T00:35:49;14.80;;;2.42;;
27505;SDS011;14939;43.596;1.320;2022-11-04T00:38:15;14.32;;;2.28;;
27505;SDS011;14939;43.596;1.320;2022-11-04T00:40:41;17.10;;;2.88;;
27505;SDS011;14939;43.596;1.320;2022-11-04T00:43:07;18.52;;;3.25;;
27505;SDS011;14939;43.596;1.320;2022-11-04T00:45:33;16.63;;;2.70;;
27505;SDS011;14939;43.596;1.320;2022-11-04T00:47:59;15.40;;;2.47;;
27505;SDS011;14939;43.596;1.320;2022-11-04T00:50:24;12.98;;;2.00;;
27505;SDS011;14939;43.596;1.320;2022-11-04T00:52:50;18.20;;;2.22;;
27505;SDS011;14939;43.596;1.320;2022-11-04T00:55:16;17.45;;;2.40;;
27505;SDS011;14939;43.596;1.320;2022-11-04T00:57:41;15.20;;;2.30;;
27505;SDS011;14939;43.596;1.320;2022-11-04T01:00:07;18.10;;;2.63;;
27505;SDS011;14939;43.596;1.320;2022-11-04T01:02:33;17.00;;;3.10;;
27505;SDS011;14939;43.596;1.320;2022-11-04T01:04:59;14.45;;;2.70;;
27505;SDS011;14939;43.596;1.320;2022-11-04T01:07:24;13.95;;;2.40;;
27505;SDS011;14939;43.596;1.320;2022-11-04T01:09:50;22.25;;;2.83;;
27505;SDS011;14939;43.596;1.320;2022-11-04T01:12:16;21.23;;;3.20;;
27505;SDS011;14939;43.596;1.320;2022-11-04T01:14:42;16.10;;;2.67;;
27505;SDS011;14939;43.596;1.320;2022-11-04T01:17:07;20.70;;;3.17;;
27505;SDS011;14939;43.596;1.320;2022-11-04T01:19:33;17.67;;;2.75;;
27505;SDS011;14939;43.596;1.320;2022-11-04T01:21:59;24.75;;;3.22;;
27505;SDS011;14939;43.596;1.320;2022-11-04T01:24:24;18.00;;;2.85;;
27505;SDS011;14939;43.596;1.320;2022-11-04T01:26:50;15.23;;;2.55;;
27505;SDS011;14939;43.596;1.320;2022-11-04T01:29:16;17.13;;;2.17;;
27505;SDS011;14939;43.596;1.320;2022-11-04T01:31:41;16.95;;;2.42;;
27505;SDS011;14939;43.596;1.320;2022-11-04T01:34:07;18.65;;;2.53;;
27505;SDS011;14939;43.596;1.320;2022-11-04T01:36:33;14.90;;;2.05;;
27505;SDS011;14939;43.596;1.320;2022-11-04T01:38:59;15.65;;;2.35;;
27505;SDS011;14939;43.596;1.320;2022-11-04T01:41:28;13.43;;;1.90;;
27505;SDS011;14939;43.596;1.320;2022-11-04T01:46:48;19.52;;;2.92;;
27505;SDS011;14939;43.596;1.320;2022-11-04T01:52:04;14.60;;;2.15;;
27505;SDS011;14939;43.596;1.320;2022-11-04T01:54:33;15.07;;;2.20;;
27505;SDS011;14939;43.596;1.320;2022-11-04T01:57:01;19.23;;;2.55;;
27505;SDS011;14939;43.596;1.320;2022-11-04T01:59:35;16.13;;;2.30;;
27505;SDS011;14939;43.596;1.320;2022-11-04T02:02:03;18.08;;;2.25;;
27505;SDS011;14939;43.596;1.320;2022-11-04T02:04:29;14.02;;;1.75;;
27505;SDS011;14939;43.596;1.320;2022-11-04T02:06:56;15.13;;;1.88;;
27505;SDS011;14939;43.596;1.320;2022-11-04T02:09:27;13.30;;;1.77;;
27505;SDS011;14939;43.596;1.320;2022-11-04T02:11:55;15.45;;;2.15;;
27505;SDS011;14939;43.596;1.320;2022-11-04T02:14:39;10.77;;;1.70;;
27505;SDS011;14939;43.596;1.320;2022-11-04T02:30:50;9.20;;;1.63;;
27505;SDS011;14939;43.596;1.320;2022-11-04T02:33:26;12.70;;;1.80;;
27505;SDS011;14939;43.596;1.320;2022-11-04T02:36:04;18.38;;;2.30;;
27505;SDS011;14939;43.596;1.320;2022-11-04T02:44:21;12.73;;;1.73;;
27505;SDS011;14939;43.596;1.320;2022-11-04T02:47:01;13.50;;;2.05;;
27505;SDS011;14939;43.596;1.320;2022-11-04T02:52:06;19.20;;;2.30;;
27505;SDS011;14939;43.596;1.320;2022-11-04T02:54:52;13.30;;;1.85;;
27505;SDS011;14939;43.596;1.320;2022-11-04T02:57:28;10.65;;;1.70;;
27505;SDS011;14939;43.596;1.320;2022-11-04T03:00:00;12.32;;;1.60;;
27505;SDS011;14939;43.596;1.320;2022-11-04T03:02:44;9.65;;;1.50;;
27505;SDS011;14939;43.596;1.320;2022-11-04T03:05:17;10.85;;;1.55;;
27505;SDS011;14939;43.596;1.320;2022-11-04T03:07:46;12.68;;;2.00;;
27505;SDS011;14939;43.596;1.320;2022-11-04T03:10:17;9.80;;;1.88;;
27505;SDS011;14939;43.596;1.320;2022-11-04T03:12:59;11.95;;;2.20;;
27505;SDS011;14939;43.596;1.320;2022-11-04T03:15:36;12.05;;;1.77;;
27505;SDS011;14939;43.596;1.320;2022-11-04T03:20:50;13.63;;;1.90;;
27505;SDS011;14939;43.596;1.320;2022-11-04T03:23:18;15.77;;;2.33;;
27505;SDS011;14939;43.596;1.320;2022-11-04T03:25:44;10.43;;;1.83;;
27505;SDS011;14939;43.596;1.320;2022-11-04T03:28:26;16.13;;;2.20;;
27505;SDS011;14939;43.596;1.320;2022-11-04T03:31:21;14.43;;;2.20;;
27505;SDS011;14939;43.596;1.320;2022-11-04T03:33:51;12.38;;;1.85;;
27505;SDS011;14939;43.596;1.320;2022-11-04T03:36:19;16.88;;;1.90;;
27505;SDS011;14939;43.596;1.320;2022-11-04T03:38:46;14.30;;;2.45;;
27505;SDS011;14939;43.596;1.320;2022-11-04T03:41:23;22.15;;;2.50;;
27505;SDS011;14939;43.596;1.320;2022-11-04T03:43:58;21.15;;;2.80;;
27505;SDS011;14939;43.596;1.320;2022-11-04T03:46:24;19.25;;;2.25;;
27505;SDS011;14939;43.596;1.320;2022-11-04T03:48:50;17.58;;;2.03;;
27505;SDS011;14939;43.596;1.320;2022-11-04T03:51:19;11.82;;;1.85;;
27505;SDS011;14939;43.596;1.320;2022-11-04T03:53:45;13.77;;;1.88;;
27505;SDS011;14939;43.596;1.320;2022-11-04T03:59:07;9.57;;;1.83;;
27505;SDS011;14939;43.596;1.320;2022-11-04T04:04:28;16.60;;;2.25;;
27505;SDS011;14939;43.596;1.320;2022-11-04T04:07:00;17.88;;;2.20;;
27505;SDS011;14939;43.596;1.320;2022-11-04T04:09:37;16.95;;;2.38;;
27505;SDS011;14939;43.596;1.320;2022-11-04T04:12:16;19.63;;;2.65;;
27505;SDS011;14939;43.596;1.320;2022-11-04T04:14:52;17.13;;;2.25;;
27505;SDS011;14939;43.596;1.320;2022-11-04T04:20:05;19.13;;;2.35;;
27505;SDS011;14939;43.596;1.320;2022-11-04T04:22:36;19.77;;;2.40;;
27505;SDS011;14939;43.596;1.320;2022-11-04T04:25:07;16.38;;;2.20;;
27505;SDS011;14939;43.596;1.320;2022-11-04T04:27:55;17.15;;;2.65;;
27505;SDS011;14939;43.596;1.320;2022-11-04T04:30:22;14.35;;;2.03;;
27505;SDS011;14939;43.596;1.320;2022-11-04T04:32:50;19.02;;;2.60;;
27505;SDS011;14939;43.596;1.320;2022-11-04T04:35:24;19.13;;;2.33;;
27505;SDS011;14939;43.596;1.320;2022-11-04T04:38:29;18.77;;;2.50;;
27505;SDS011;14939;43.596;1.320;2022-11-04T04:44:03;17.20;;;2.50;;
27505;SDS011;14939;43.596;1.320;2022-11-04T04:46:54;15.23;;;2.47;;
27505;SDS011;14939;43.596;1.320;2022-11-04T04:49:21;20.23;;;2.65;;
27505;SDS011;14939;43.596;1.320;2022-11-04T04:51:47;14.57;;;2.13;;
27505;SDS011;14939;43.596;1.320;2022-11-04T04:54:13;20.83;;;2.45;;
27505;SDS011;14939;43.596;1.320;2022-11-04T04:56:39;18.77;;;2.35;;
27505;SDS011;14939;43.596;1.320;2022-11-04T04:59:05;19.80;;;2.28;;
27505;SDS011;14939;43.596;1.320;2022-11-04T05:01:31;14.65;;;2.05;;
27505;SDS011;14939;43.596;1.320;2022-11-04T05:03:57;14.85;;;2.13;;
27505;SDS011;14939;43.596;1.320;2022-11-04T05:06:22;14.75;;;2.45;;
27505;SDS011;14939;43.596;1.320;2022-11-04T05:08:48;15.38;;;2.17;;
27505;SDS011;14939;43.596;1.320;2022-11-04T05:11:14;14.98;;;2.75;;
27505;SDS011;14939;43.596;1.320;2022-11-04T05:13:39;15.82;;;2.45;;
27505;SDS011;14939;43.596;1.320;2022-11-04T05:16:06;13.82;;;2.05;;
27505;SDS011;14939;43.596;1.320;2022-11-04T05:18:35;11.75;;;1.83;;
27505;SDS011;14939;43.596;1.320;2022-11-04T05:21:02;16.17;;;2.15;;
27505;SDS011;14939;43.596;1.320;2022-11-04T05:23:34;16.73;;;2.45;;
27505;SDS011;14939;43.596;1.320;2022-11-04T05:26:00;16.48;;;2.20;;
27505;SDS011;14939;43.596;1.320;2022-11-04T05:28:26;12.45;;;1.85;;
27505;SDS011;14939;43.596;1.320;2022-11-04T05:30:52;14.05;;;2.20;;
27505;SDS011;14939;43.596;1.320;2022-11-04T05:33:18;12.30;;;2.40;;
27505;SDS011;14939;43.596;1.320;2022-11-04T05:35:43;11.45;;;1.95;;
27505;SDS011;14939;43.596;1.320;2022-11-04T05:38:09;15.93;;;2.25;;
27505;SDS011;14939;43.596;1.320;2022-11-04T05:40:35;15.98;;;2.20;;
27505;SDS011;14939;43.596;1.320;2022-11-04T05:43:00;10.27;;;1.73;;
27505;SDS011;14939;43.596;1.320;2022-11-04T05:45:27;13.20;;;2.20;;
27505;SDS011;14939;43.596;1.320;2022-11-04T05:48:00;14.20;;;2.00;;
27505;SDS011;14939;43.596;1.320;2022-11-04T05:50:27;18.40;;;2.40;;
27505;SDS011;14939;43.596;1.320;2022-11-04T05:52:55;16.80;;;2.40;;
27505;SDS011;14939;43.596;1.320;2022-11-04T05:55:24;11.38;;;2.20;;
27505;SDS011;14939;43.596;1.320;2022-11-04T05:57:51;14.02;;;2.00;;
27505;SDS011;14939;43.596;1.320;2022-11-04T06:00:17;12.98;;;1.98;;
27505;SDS011;14939;43.596;1.320;2022-11-04T06:02:43;18.95;;;2.63;;
27505;SDS011;14939;43.596;1.320;2022-11-04T06:05:09;19.55;;;2.22;;
27505;SDS011;14939;43.596;1.320;2022-11-04T06:07:35;15.88;;;2.53;;
27505;SDS011;14939;43.596;1.320;2022-11-04T06:10:00;15.90;;;2.70;;
27505;SDS011;14939;43.596;1.320;2022-11-04T06:12:26;17.20;;;2.05;;
27505;SDS011;14939;43.596;1.320;2022-11-04T06:14:52;13.27;;;1.88;;
27505;SDS011;14939;43.596;1.320;2022-11-04T06:17:19;15.65;;;2.22;;
27505;SDS011;14939;43.596;1.320;2022-11-04T06:19:46;10.50;;;2.00;;
27505;SDS011;14939;43.596;1.320;2022-11-04T06:22:16;15.48;;;2.00;;
27505;SDS011;14939;43.596;1.320;2022-11-04T06:24:43;9.30;;;2.10;;
27505;SDS011;14939;43.596;1.320;2022-11-04T06:27:09;10.48;;;1.83;;
27505;SDS011;14939;43.596;1.320;2022-11-04T06:29:36;11.82;;;1.60;;
27505;SDS011;14939;43.596;1.320;2022-11-04T06:32:06;11.75;;;1.75;;
27505;SDS011;14939;43.596;1.320;2022-11-04T06:34:32;13.35;;;1.85;;
27505;SDS011;14939;43.596;1.320;2022-11-04T06:36:58;8.18;;;1.65;;
27505;SDS011;14939;43.596;1.320;2022-11-04T06:39:23;18.92;;;1.95;;
27505;SDS011;14939;43.596;1.320;2022-11-04T06:41:49;11.95;;;1.83;;
27505;SDS011;14939;43.596;1.320;2022-11-04T06:44:15;14.30;;;2.20;;
27505;SDS011;14939;43.596;1.320;2022-11-04T06:46:41;17.02;;;2.53;;
27505;SDS011;14939;43.596;1.320;2022-11-04T06:49:11;7.88;;;1.67;;
27505;SDS011;14939;43.596;1.320;2022-11-04T06:51:38;14.35;;;1.98;;
27505;SDS011;14939;43.596;1.320;2022-11-04T06:54:04;12.98;;;2.47;;
27505;SDS011;14939;43.596;1.320;2022-11-04T06:56:30;17.88;;;2.47;;
27505;SDS011;14939;43.596;1.320;2022-11-04T06:58:56;15.52;;;2.35;;
27505;SDS011;14939;43.596;1.320;2022-11-04T07:01:22;20.40;;;2.35;;
27505;SDS011;14939;43.596;1.320;2022-11-04T07:03:51;21.50;;;2.40;;
27505;SDS011;14939;43.596;1.320;2022-11-04T07:06:18;15.75;;;2.15;;
27505;SDS011;14939;43.596;1.320;2022-11-04T07:08:45;15.70;;;1.48;;
27505;SDS011;14939;43.596;1.320;2022-11-04T07:11:12;7.32;;;1.30;;
27505;SDS011;14939;43.596;1.320;2022-11-04T07:13:38;12.98;;;1.85;;
27505;SDS011;14939;43.596;1.320;2022-11-04T07:16:05;7.97;;;1.10;;
27505;SDS011;14939;43.596;1.320;2022-11-04T07:18:32;6.03;;;1.27;;
27505;SDS011;14939;43.596;1.320;2022-11-04T07:20:58;4.68;;;1.00;;
27505;SDS011;14939;43.596;1.320;2022-11-04T07:23:24;4.57;;;0.80;;
27505;SDS011;14939;43.596;1.320;2022-11-04T07:25:50;5.45;;;1.05;;
27505;SDS011;14939;43.596;1.320;2022-11-04T07:28:18;4.47;;;0.90;;
27505;SDS011;14939;43.596;1.320;2022-11-04T07:30:46;6.18;;;0.95;;
27505;SDS011;14939;43.596;1.320;2022-11-04T07:33:12;2.25;;;0.50;;
27505;SDS011;14939;43.596;1.320;2022-11-04T07:35:37;5.13;;;0.80;;
27505;SDS011;14939;43.596;1.320;2022-11-04T07:38:03;2.95;;;0.60;;
27505;SDS011;14939;43.596;1.320;2022-11-04T07:40:29;6.93;;;0.80;;
27505;SDS011;14939;43.596;1.320;2022-11-04T07:42:58;3.15;;;0.70;;
27505;SDS011;14939;43.596;1.320;2022-11-04T07:45:24;4.72;;;0.80;;
27505;SDS011;14939;43.596;1.320;2022-11-04T07:47:50;3.22;;;0.70;;
27505;SDS011;14939;43.596;1.320;2022-11-04T07:50:16;2.72;;;0.77;;
27505;SDS011;14939;43.596;1.320;2022-11-04T07:52:42;4.18;;;0.52;;
27505;SDS011;14939;43.596;1.320;2022-11-04T07:55:08;4.18;;;0.75;;
27505;SDS011;14939;43.596;1.320;2022-11-04T07:57:34;4.15;;;0.82;;
27505;SDS011;14939;43.596;1.320;2022-11-04T08:00:00;5.35;;;1.10;;
27505;SDS011;14939;43.596;1.320;2022-11-04T08:02:26;3.60;;;0.88;;
27505;SDS011;14939;43.596;1.320;2022-11-04T08:04:52;4.57;;;1.42;;
27505;SDS011;14939;43.596;1.320;2022-11-04T08:07:17;5.93;;;1.88;;
27505;SDS011;14939;43.596;1.320;2022-11-04T08:09:44;5.10;;;1.30;;
27505;SDS011;14939;43.596;1.320;2022-11-04T08:12:10;5.95;;;1.35;;
27505;SDS011;14939;43.596;1.320;2022-11-04T08:14:35;6.78;;;1.17;;
27505;SDS011;14939;43.596;1.320;2022-11-04T08:17:01;6.65;;;0.90;;
27505;SDS011;14939;43.596;1.320;2022-11-04T08:19:27;5.15;;;0.98;;
27505;SDS011;14939;43.596;1.320;2022-11-04T08:21:52;6.20;;;1.27;;
27505;SDS011;14939;43.596;1.320;2022-11-04T08:24:18;4.72;;;1.70;;
27505;SDS011;14939;43.596;1.320;2022-11-04T08:26:44;5.30;;;0.90;;
27505;SDS011;14939;43.596;1.320;2022-11-04T08:29:10;7.63;;;1.30;;
27505;SDS011;14939;43.596;1.320;2022-11-04T08:31:36;6.10;;;1.25;;
27505;SDS011;14939;43.596;1.320;2022-11-04T08:34:02;5.00;;;1.00;;
27505;SDS011;14939;43.596;1.320;2022-11-04T08:36:29;9.00;;;1.20;;
27505;SDS011;14939;43.596;1.320;2022-11-04T08:38:56;8.75;;;1.10;;
27505;SDS011;14939;43.596;1.320;2022-11-04T08:41:26;6.75;;;1.10;;
27505;SDS011;14939;43.596;1.320;2022-11-04T08:43:56;4.45;;;1.08;;
27505;SDS011;14939;43.596;1.320;2022-11-04T08:46:28;4.82;;;0.80;;
27505;SDS011;14939;43.596;1.320;2022-11-04T08:48:56;3.88;;;0.90;;
27505;SDS011;14939;43.596;1.320;2022-11-04T08:51:24;4.97;;;1.10;;
27505;SDS011;14939;43.596;1.320;2022-11-04T08:53:51;4.10;;;0.75;;
27505;SDS011;14939;43.596;1.320;2022-11-04T08:56:19;8.57;;;1.83;;
27505;SDS011;14939;43.596;1.320;2022-11-04T08:58:55;7.28;;;1.10;;
27505;SDS011;14939;43.596;1.320;2022-11-04T09:01:23;5.43;;;1.02;;
27505;SDS011;14939;43.596;1.320;2022-11-04T09:03:50;4.82;;;0.90;;
27505;SDS011;14939;43.596;1.320;2022-11-04T09:06:20;3.92;;;0.82;;
27505;SDS011;14939;43.596;1.320;2022-11-04T09:08:48;4.05;;;1.00;;
27505;SDS011;14939;43.596;1.320;2022-11-04T09:11:14;2.67;;;0.95;;
27505;SDS011;14939;43.596;1.320;2022-11-04T09:13:41;6.63;;;1.35;;
27505;SDS011;14939;43.596;1.320;2022-11-04T09:16:08;5.53;;;1.13;;
27505;SDS011;14939;43.596;1.320;2022-11-04T09:18:36;7.80;;;1.25;;
27505;SDS011;14939;43.596;1.320;2022-11-04T09:21:02;6.85;;;1.00;;
27505;SDS011;14939;43.596;1.320;2022-11-04T09:23:29;5.93;;;1.10;;
27505;SDS011;14939;43.596;1.320;2022-11-04T09:25:55;6.70;;;1.27;;
27505;SDS011;14939;43.596;1.320;2022-11-04T09:28:22;6.82;;;1.00;;
27505;SDS011;14939;43.596;1.320;2022-11-04T09:30:49;8.85;;;1.05;;
27505;SDS011;14939;43.596;1.320;2022-11-04T09:33:15;3.78;;;0.90;;
27505;SDS011;14939;43.596;1.320;2022-11-04T09:35:41;4.32;;;0.80;;
27505;SDS011;14939;43.596;1.320;2022-11-04T09:38:06;5.43;;;1.00;;
27505;SDS011;14939;43.596;1.320;2022-11-04T09:40:33;7.22;;;0.98;;
27505;SDS011;14939;43.596;1.320;2022-11-04T09:45:57;7.53;;;1.00;;
27505;SDS011;14939;43.596;1.320;2022-11-04T09:51:02;10.82;;;1.30;;
27505;SDS011;14939;43.596;1.320;2022-11-04T09:53:41;12.15;;;1.40;;
27505;SDS011;14939;43.596;1.320;2022-11-04T09:56:18;10.65;;;1.70;;
27505;SDS011;14939;43.596;1.320;2022-11-04T09:58:45;11.40;;;2.08;;
27505;SDS011;14939;43.596;1.320;2022-11-04T10:01:19;8.02;;;1.25;;
27505;SDS011;14939;43.596;1.320;2022-11-04T10:15:20;11.20;;;1.75;;
27505;SDS011;14939;43.596;1.320;2022-11-04T10:20:46;13.63;;;1.85;;
27505;SDS011;14939;43.596;1.320;2022-11-04T10:23:27;12.48;;;1.83;;
27505;SDS011;14939;43.596;1.320;2022-11-04T10:28:47;10.13;;;1.73;;
27505;SDS011;14939;43.596;1.320;2022-11-04T10:31:19;7.70;;;1.30;;
27505;SDS011;14939;43.596;1.320;2022-11-04T10:33:49;12.63;;;1.92;;
27505;SDS011;14939;43.596;1.320;2022-11-04T10:36:19;11.13;;;1.50;;
27505;SDS011;14939;43.596;1.320;2022-11-04T10:38:50;14.52;;;1.77;;
27505;SDS011;14939;43.596;1.320;2022-11-04T10:43:49;12.07;;;2.20;;
27505;SDS011;14939;43.596;1.320;2022-11-04T10:51:55;15.00;;;2.47;;
27505;SDS011;14939;43.596;1.320;2022-11-04T10:54:21;13.68;;;2.20;;
27505;SDS011;14939;43.596;1.320;2022-11-04T10:56:51;11.18;;;2.10;;
27505;SDS011;14939;43.596;1.320;2022-11-04T10:59:23;13.93;;;2.83;;
27505;SDS011;14939;43.596;1.320;2022-11-04T11:01:50;18.58;;;2.58;;
27505;SDS011;14939;43.596;1.320;2022-11-04T11:07:07;17.42;;;2.47;;
27505;SDS011;14939;43.596;1.320;2022-11-04T11:12:16;18.08;;;2.60;;
27505;SDS011;14939;43.596;1.320;2022-11-04T11:14:42;17.73;;;2.45;;
27505;SDS011;14939;43.596;1.320;2022-11-04T11:17:21;15.82;;;2.67;;
27505;SDS011;14939;43.596;1.320;2022-11-04T11:19:54;19.80;;;3.15;;
27505;SDS011;14939;43.596;1.320;2022-11-04T11:22:39;17.83;;;2.75;;
27505;SDS011;14939;43.596;1.320;2022-11-04T11:25:12;21.17;;;3.05;;
27505;SDS011;14939;43.596;1.320;2022-11-04T11:27:44;16.23;;;2.72;;
27505;SDS011;14939;43.596;1.320;2022-11-04T11:32:50;20.00;;;2.97;;
27505;SDS011;14939;43.596;1.320;2022-11-04T11:35:21;21.15;;;2.67;;
27505;SDS011;14939;43.596;1.320;2022-11-04T11:37:49;12.57;;;2.22;;
27505;SDS011;14939;43.596;1.320;2022-11-04T11:40:25;20.73;;;3.15;;
27505;SDS011;14939;43.596;1.320;2022-11-04T11:42:56;18.88;;;2.75;;
27505;SDS011;14939;43.596;1.320;2022-11-04T11:45:24;18.65;;;2.80;;
27505;SDS011;14939;43.596;1.320;2022-11-04T11:47:51;15.68;;;2.80;;
27505;SDS011;14939;43.596;1.320;2022-11-04T11:50:20;19.33;;;3.00;;
27505;SDS011;14939;43.596;1.320;2022-11-04T11:52:48;16.88;;;2.63;;
27505;SDS011;14939;43.596;1.320;2022-11-04T12:03:56;15.63;;;2.50;;
27505;SDS011;14939;43.596;1.320;2022-11-04T12:19:51;20.33;;;4.00;;
27505;SDS011;14939;43.596;1.320;2022-11-04T12:27:55;18.17;;;3.78;;
27505;SDS011;14939;43.596;1.320;2022-11-04T12:31:06;18.83;;;3.30;;
27505;SDS011;14939;43.596;1.320;2022-11-04T12:36:29;19.10;;;2.80;;
27505;SDS011;14939;43.596;1.320;2022-11-04T12:47:14;16.17;;;2.25;;
27505;SDS011;14939;43.596;1.320;2022-11-04T13:00:47;12.07;;;1.92;;
27505;SDS011;14939;43.596;1.320;2022-11-04T13:03:45;17.98;;;3.05;;
27505;SDS011;14939;43.596;1.320;2022-11-04T13:06:16;17.63;;;3.90;;
27505;SDS011;14939;43.596;1.320;2022-11-04T13:09:04;13.93;;;2.35;;
27505;SDS011;14939;43.596;1.320;2022-11-04T13:11:44;15.05;;;2.40;;
27505;SDS011;14939;43.596;1.320;2022-11-04T13:14:40;19.42;;;2.22;;
27505;SDS011;14939;43.596;1.320;2022-11-04T13:17:21;15.93;;;2.10;;
27505;SDS011;14939;43.596;1.320;2022-11-04T13:22:21;10.73;;;2.50;;
27505;SDS011;14939;43.596;1.320;2022-11-04T13:24:56;14.67;;;2.40;;
27505;SDS011;14939;43.596;1.320;2022-11-04T13:27:32;15.13;;;2.45;;
27505;SDS011;14939;43.596;1.320;2022-11-04T13:30:06;17.95;;;2.90;;
27505;SDS011;14939;43.596;1.320;2022-11-04T13:35:20;18.10;;;3.30;;
27505;SDS011;14939;43.596;1.320;2022-11-04T13:38:04;18.75;;;2.85;;
27505;SDS011;14939;43.596;1.320;2022-11-04T13:46:16;14.43;;;2.45;;
27505;SDS011;14939;43.596;1.320;2022-11-04T13:48:50;21.85;;;2.78;;
27505;SDS011;14939;43.596;1.320;2022-11-04T13:51:20;17.48;;;2.95;;
27505;SDS011;14939;43.596;1.320;2022-11-04T13:53:50;21.55;;;3.00;;
27505;SDS011;14939;43.596;1.320;2022-11-04T13:58:57;13.80;;;1.95;;
27505;SDS011;14939;43.596;1.320;2022-11-04T14:01:28;16.27;;;2.88;;
27505;SDS011;14939;43.596;1.320;2022-11-04T14:04:04;14.40;;;1.83;;
27505;SDS011;14939;43.596;1.320;2022-11-04T14:14:42;12.68;;;2.22;;
27505;SDS011;14939;43.596;1.320;2022-11-04T14:22:46;14.45;;;2.20;;
27505;SDS011;14939;43.596;1.320;2022-11-04T14:30:36;16.35;;;2.25;;
27505;SDS011;14939;43.596;1.320;2022-11-04T14:33:07;12.05;;;1.83;;
27505;SDS011;14939;43.596;1.320;2022-11-04T14:35:48;11.02;;;1.95;;
27505;SDS011;14939;43.596;1.320;2022-11-04T14:38:34;13.05;;;2.10;;
27505;SDS011;14939;43.596;1.320;2022-11-04T14:43:44;12.10;;;2.00;;
27505;SDS011;14939;43.596;1.320;2022-11-04T14:46:12;10.30;;;2.25;;
27505;SDS011;14939;43.596;1.320;2022-11-04T14:49:05;11.75;;;2.00;;
27505;SDS011;14939;43.596;1.320;2022-11-04T14:51:32;7.47;;;1.75;;
27505;SDS011;14939;43.596;1.320;2022-11-04T14:54:05;12.25;;;2.08;;
27505;SDS011;14939;43.596;1.320;2022-11-04T14:56:43;14.15;;;2.25;;
27505;SDS011;14939;43.596;1.320;2022-11-04T14:59:19;6.47;;;1.33;;
27505;SDS011;14939;43.596;1.320;2022-11-04T15:01:47;13.20;;;2.22;;
27505;SDS011;14939;43.596;1.320;2022-11-04T15:04:26;9.85;;;1.88;;
27505;SDS011;14939;43.596;1.320;2022-11-04T15:06:57;15.07;;;2.85;;
27505;SDS011;14939;43.596;1.320;2022-11-04T15:09:31;10.67;;;2.33;;
27505;SDS011;14939;43.596;1.320;2022-11-04T15:12:08;10.10;;;1.98;;
27505;SDS011;14939;43.596;1.320;2022-11-04T15:15:00;12.07;;;2.40;;
27505;SDS011;14939;43.596;1.320;2022-11-04T15:17:27;9.18;;;1.98;;
27505;SDS011;14939;43.596;1.320;2022-11-04T15:19:56;9.75;;;1.90;;
27505;SDS011;14939;43.596;1.320;2022-11-04T15:22:24;10.88;;;1.80;;
27505;SDS011;14939;43.596;1.320;2022-11-04T15:24:52;7.88;;;1.70;;
27505;SDS011;14939;43.596;1.320;2022-11-04T15:27:18;9.63;;;1.83;;
27505;SDS011;14939;43.596;1.320;2022-11-04T15:29:53;9.88;;;1.90;;
27505;SDS011;14939;43.596;1.320;2022-11-04T15:32:19;10.90;;;1.70;;
27505;SDS011;14939;43.596;1.320;2022-11-04T15:34:45;13.05;;;2.53;;
27505;SDS011;14939;43.596;1.320;2022-11-04T15:37:11;9.95;;;1.65;;
27505;SDS011;14939;43.596;1.320;2022-11-04T15:39:47;12.77;;;2.30;;
27505;SDS011;14939;43.596;1.320;2022-11-04T15:42:20;8.60;;;1.65;;
27505;SDS011;14939;43.596;1.320;2022-11-04T15:45:15;9.73;;;1.55;;
27505;SDS011;14939;43.596;1.320;2022-11-04T15:51:07;6.57;;;1.48;;
27505;SDS011;14939;43.596;1.320;2022-11-04T15:56:19;9.95;;;1.58;;
27505;SDS011;14939;43.596;1.320;2022-11-04T15:58:50;7.70;;;1.48;;
27505;SDS011;14939;43.596;1.320;2022-11-04T16:01:17;11.02;;;1.60;;
27505;SDS011;14939;43.596;1.320;2022-11-04T16:03:54;8.27;;;1.70;;
27505;SDS011;14939;43.596;1.320;2022-11-04T16:06:31;14.82;;;1.88;;
27505;SDS011;14939;43.596;1.320;2022-11-04T16:08:59;8.85;;;1.63;;
27505;SDS011;14939;43.596;1.320;2022-11-04T16:11:28;6.90;;;1.30;;
27505;SDS011;14939;43.596;1.320;2022-11-04T16:14:12;9.98;;;1.55;;
27505;SDS011;14939;43.596;1.320;2022-11-04T16:16:50;7.25;;;1.63;;
27505;SDS011;14939;43.596;1.320;2022-11-04T16:19:21;8.38;;;1.73;;
27505;SDS011;14939;43.596;1.320;2022-11-04T16:24:26;7.97;;;1.60;;
27505;SDS011;14939;43.596;1.320;2022-11-04T16:26:55;7.88;;;1.70;;
27505;SDS011;14939;43.596;1.320;2022-11-04T16:29:25;10.00;;;1.50;;
27505;SDS011;14939;43.596;1.320;2022-11-04T16:34:38;7.43;;;2.00;;
27505;SDS011;14939;43.596;1.320;2022-11-04T16:37:03;11.95;;;2.58;;
27505;SDS011;14939;43.596;1.320;2022-11-04T16:39:29;7.65;;;1.60;;
27505;SDS011;14939;43.596;1.320;2022-11-04T16:41:56;12.45;;;2.03;;
27505;SDS011;14939;43.596;1.320;2022-11-04T16:44:23;8.73;;;1.48;;
27505;SDS011;14939;43.596;1.320;2022-11-04T16:46:49;8.73;;;1.85;;
27505;SDS011;14939;43.596;1.320;2022-11-04T16:49:16;11.48;;;1.95;;
27505;SDS011;14939;43.596;1.320;2022-11-04T16:51:44;9.25;;;2.13;;
27505;SDS011;14939;43.596;1.320;2022-11-04T16:54:11;10.50;;;2.10;;
27505;SDS011;14939;43.596;1.320;2022-11-04T16:56:38;9.73;;;1.80;;
27505;SDS011;14939;43.596;1.320;2022-11-04T16:59:04;7.75;;;1.83;;
27505;SDS011;14939;43.596;1.320;2022-11-04T17:01:29;8.82;;;2.15;;
27505;SDS011;14939;43.596;1.320;2022-11-04T17:03:55;9.05;;;1.70;;
27505;SDS011;14939;43.596;1.320;2022-11-04T17:06:21;8.93;;;1.92;;
27505;SDS011;14939;43.596;1.320;2022-11-04T17:08:48;9.27;;;2.00;;
27505;SDS011;14939;43.596;1.320;2022-11-04T17:11:13;8.10;;;1.92;;
27505;SDS011;14939;43.596;1.320;2022-11-04T17:13:39;7.50;;;1.70;;
27505;SDS011;14939;43.596;1.320;2022-11-04T17:16:05;8.73;;;1.50;;
27505;SDS011;14939;43.596;1.320;2022-11-04T17:18:32;8.32;;;1.70;;
27505;SDS011;14939;43.596;1.320;2022-11-04T17:21:00;12.38;;;1.85;;
27505;SDS011;14939;43.596;1.320;2022-11-04T17:23:30;8.93;;;1.83;;
27505;SDS011;14939;43.596;1.320;2022-11-04T17:25:55;8.52;;;1.92;;
27505;SDS011;14939;43.596;1.320;2022-11-04T17:28:21;8.55;;;1.95;;
27505;SDS011;14939;43.596;1.320;2022-11-04T17:30:47;9.55;;;2.20;;
27505;SDS011;14939;43.596;1.320;2022-11-04T17:33:13;9.65;;;2.05;;
27505;SDS011;14939;43.596;1.320;2022-11-04T17:35:40;12.70;;;1.90;;
27505;SDS011;14939;43.596;1.320;2022-11-04T17:38:11;16.25;;;2.28;;
27505;SDS011;14939;43.596;1.320;2022-11-04T17:40:37;9.27;;;2.25;;
27505;SDS011;14939;43.596;1.320;2022-11-04T17:43:22;11.23;;;2.10;;
27505;SDS011;14939;43.596;1.320;2022-11-04T17:46:07;8.38;;;1.73;;
27505;SDS011;14939;43.596;1.320;2022-11-04T17:48:52;8.82;;;1.80;;
27505;SDS011;14939;43.596;1.320;2022-11-04T17:51:18;10.82;;;2.20;;
27505;SDS011;14939;43.596;1.320;2022-11-04T17:53:45;11.43;;;2.22;;